Time;durP1;ratioP1;P1;durP2;ratioP2;P2;SDS_P1;SDS_P2;PMS_P1;PMS_P2;Temp;Humidity;BMP_temperature;BMP_pressure;BME280_temperature;BME280_humidity;BME280_pressure;Samples;Min_cycle;Max_cycle;Signal;HPM_P1;HPM_P2
2022/12/28 00:02:41;;;;;;;1999.90;999.90;;;;;;;3.53;100.00;99995.41;8422403;28;20048;-73
2022/12/28 00:06:42;;;;;;;1999.90;999.90;;;;;;;3.62;100.00;99985.47;8419908;28;20050;-73
2022/12/28 00:10:44;;;;;;;1999.90;999.90;;;;;;;3.65;100.00;99971.84;8401049;28;20074;-73
2022/12/28 00:15:05;;;;;;;1999.90;999.90;;;;;;;3.65;100.00;99956.44;8428246;28;20056;-74
2022/12/28 00:19:13;;;;;;;1999.90;999.90;;;;;;;3.70;100.00;99947.19;8443611;28;20044;-73
2022/12/28 00:23:14;;;;;;;1999.90;999.90;;;;;;;3.79;100.00;99939.78;8429472;28;20292;-73
2022/12/28 00:27:15;;;;;;;1999.90;999.90;;;;;;;3.86;100.00;99936.56;8411405;28;20527;-73
2022/12/28 00:31:17;;;;;;;1999.90;999.90;;;;;;;3.94;100.00;99921.38;8436944;28;20079;-73
2022/12/28 00:35:18;;;;;;;1999.90;999.90;;;;;;;4.03;100.00;99915.66;8856353;22;20048;-75
2022/12/28 00:39:20;;;;;;;1999.90;999.90;;;;;;;4.12;100.00;99905.66;8361088;28;20052;-74
2022/12/28 00:43:21;;;;;;;1999.90;999.90;;;;;;;4.18;100.00;99916.13;8356329;28;20513;-75
2022/12/28 00:47:22;;;;;;;1999.90;999.90;;;;;;;4.24;100.00;99912.03;8364993;28;20504;-75
2022/12/28 00:51:24;;;;;;;1999.90;999.90;;;;;;;4.26;100.00;99906.94;8381613;28;20090;-74
2022/12/28 00:55:25;;;;;;;1999.90;999.90;;;;;;;4.34;100.00;99917.44;8377380;28;20079;-75
2022/12/28 00:59:27;;;;;;;1999.90;999.90;;;;;;;4.34;100.00;99905.47;8361746;28;20046;-75
2022/12/28 01:03:28;;;;;;;1999.90;999.90;;;;;;;4.35;100.00;99898.63;8372743;28;20072;-75
2022/12/28 01:07:30;;;;;;;1999.90;999.90;;;;;;;4.32;100.00;99898.53;8389677;28;20099;-75
2022/12/28 01:11:31;;;;;;;1999.90;999.90;;;;;;;4.33;100.00;99895.16;8381151;28;20058;-75
2022/12/28 01:15:33;;;;;;;1999.90;999.90;;;;;;;4.34;100.00;99891.75;8380116;28;20043;-75
2022/12/28 01:19:35;;;;;;;1999.90;999.90;;;;;;;4.38;100.00;99873.00;8376823;28;20521;-75
2022/12/28 01:23:36;;;;;;;1999.90;999.90;;;;;;;4.41;100.00;99863.66;8373080;28;20693;-75
2022/12/28 01:27:38;;;;;;;1999.90;999.90;;;;;;;4.46;100.00;99858.66;8385635;28;20100;-75
2022/12/28 01:31:39;;;;;;;1999.90;999.90;;;;;;;4.48;100.00;99854.41;8356217;28;20549;-75
2022/12/28 01:35:41;;;;;;;1999.90;999.90;;;;;;;4.50;100.00;99868.22;8383006;28;20316;-74
2022/12/28 01:39:42;;;;;;;1999.90;999.90;;;;;;;4.51;100.00;99875.97;8368494;28;20346;-74
2022/12/28 01:43:53;;;;;;;1999.90;999.90;;;;;;;4.53;100.00;99881.16;8366473;28;20152;-74
2022/12/28 01:47:55;;;;;;;1999.90;999.90;;;;;;;4.53;100.00;99874.31;8382070;28;20064;-74
2022/12/28 01:52:19;;;;;;;1999.90;999.90;;;;;;;4.53;100.00;99864.00;8389871;28;20040;-75
2022/12/28 01:56:22;;;;;;;1999.90;999.90;;;;;;;4.52;100.00;99843.41;8376562;28;20051;-74
2022/12/28 02:00:23;;;;;;;1999.90;999.90;;;;;;;4.58;100.00;99845.25;8376559;28;20044;-75
2022/12/28 02:04:25;;;;;;;1999.90;999.90;;;;;;;4.71;100.00;99847.34;8393323;28;20056;-75
2022/12/28 02:08:37;;;;;;;1999.90;999.90;;;;;;;4.81;100.00;99837.31;8390074;28;20052;-74
2022/12/28 02:12:39;;;;;;;1999.90;999.90;;;;;;;4.84;100.00;99827.09;8370392;28;20071;-74
2022/12/28 02:16:42;;;;;;;1999.90;999.90;;;;;;;4.96;100.00;99828.25;8385783;28;20052;-74
2022/12/28 02:20:59;;;;;;;;;;;;;;;5.02;100.00;99821.53;8391444;28;20080;-74
2022/12/28 02:25:42;;;;;;;1999.90;999.90;;;;;;;5.02;100.00;99818.09;8391758;28;21303;-74
2022/12/28 02:30:09;;;;;;;1999.90;999.90;;;;;;;4.96;100.00;99811.09;8382221;28;20094;-74
2022/12/28 02:34:19;;;;;;;1999.90;999.90;;;;;;;4.90;100.00;99797.22;8367266;28;20778;-75
2022/12/28 02:38:46;;;;;;;1999.90;999.90;;;;;;;4.89;100.00;99790.34;8375438;28;20052;-74
2022/12/28 02:42:48;;;;;;;1999.90;999.90;;;;;;;4.87;100.00;99798.03;8371936;28;20044;-75
2022/12/28 02:51:22;;;;;;;1999.90;999.90;;;;;;;4.98;100.00;99786.28;8390665;28;20002;-75
2022/12/28 02:56:08;;;;;;;1999.90;999.90;;;;;;;5.01;100.00;99783.75;8373096;28;20067;-75
2022/12/28 03:00:14;;;;;;;1999.90;999.90;;;;;;;5.05;100.00;99780.47;8373809;28;20072;-75
2022/12/28 03:04:44;;;;;;;1999.90;999.90;;;;;;;5.07;100.00;99772.78;8378456;28;20136;-75
2022/12/28 03:09:16;;;;;;;1999.90;999.90;;;;;;;5.10;100.00;99765.13;8376477;28;20101;-75
2022/12/28 03:13:43;;;;;;;1999.90;999.90;;;;;;;5.13;100.00;99772.91;8400551;28;20055;-75
2022/12/28 03:31:06;;;;;;;1999.90;999.90;;;;;;;5.10;100.00;99753.13;8378969;28;20485;-75
2022/12/28 03:35:09;;;;;;;1999.90;999.90;;;;;;;5.11;100.00;99746.25;8367980;28;20049;-75
2022/12/28 03:39:29;;;;;;;1999.90;999.90;;;;;;;5.15;100.00;99742.91;8374321;28;20127;-75
2022/12/28 03:43:44;;;;;;;1999.90;999.90;;;;;;;5.21;100.00;99732.78;8357248;28;20453;-75
2022/12/28 03:47:50;;;;;;;1999.90;999.90;;;;;;;5.26;100.00;99730.31;8346583;28;20057;-76
2022/12/28 03:51:53;;;;;;;1999.90;999.90;;;;;;;5.30;100.00;99722.66;8351595;28;20043;-75
2022/12/28 03:56:13;;;;;;;1999.90;999.90;;;;;;;5.35;100.00;99726.22;8355439;28;20452;-75
2022/12/28 04:00:14;;;;;;;1999.90;999.90;;;;;;;5.40;100.00;99716.03;8367455;28;20662;-75
2022/12/28 04:04:16;;;;;;;1999.90;999.90;;;;;;;5.45;100.00;99717.00;8347949;28;20045;-76
2022/12/28 04:08:17;;;;;;;1999.90;999.90;;;;;;;5.49;100.00;99715.34;8333803;28;20135;-75
2022/12/28 04:12:19;;;;;;;1999.90;999.90;;;;;;;5.55;100.00;99718.03;8370102;28;20059;-75
2022/12/28 04:16:21;;;;;;;1999.90;999.90;;;;;;;5.60;100.00;99719.03;8341778;28;20175;-75
2022/12/28 04:20:23;;;;;;;1999.90;999.90;;;;;;;5.63;100.00;99719.09;8367312;28;20060;-76
2022/12/28 04:24:24;;;;;;;1999.90;999.90;;;;;;;5.68;100.00;99718.31;8348674;28;20542;-76
2022/12/28 04:28:26;;;;;;;1999.90;999.90;;;;;;;5.72;100.00;99717.53;8333630;28;20917;-76
2022/12/28 04:32:28;;;;;;;1999.90;999.90;;;;;;;5.73;100.00;99705.53;8362197;28;20051;-76
2022/12/28 04:36:29;;;;;;;1999.90;999.90;;;;;;;5.78;100.00;99706.50;8371000;28;20432;-76
2022/12/28 04:40:31;;;;;;;1999.90;999.90;;;;;;;5.83;100.00;99704.03;8366151;28;20470;-76
2022/12/28 04:44:32;;;;;;;1999.90;999.90;;;;;;;5.89;100.00;99693.81;8370073;28;20094;-76
2022/12/28 04:48:34;;;;;;;1999.90;999.90;;;;;;;5.89;100.00;99684.38;8333114;28;20555;-76
2022/12/28 04:52:35;;;;;;;1999.90;999.90;;;;;;;5.92;100.00;99681.03;8344564;28;20052;-76
2022/12/28 04:56:37;;;;;;;1999.90;999.90;;;;;;;5.93;100.00;99678.50;8360611;28;20036;-76
2022/12/28 05:00:38;;;;;;;1999.90;999.90;;;;;;;5.97;100.00;99675.13;8334009;28;20583;-76
2022/12/28 05:04:40;;;;;;;1999.90;999.90;;;;;;;6.00;100.00;99662.28;8339588;28;20088;-76
2022/12/28 05:08:41;;;;;;;1999.90;999.90;;;;;;;6.02;100.00;99664.91;8340285;28;20053;-76
2022/12/28 05:12:43;;;;;;;1999.90;999.90;;;;;;;6.04;100.00;99671.81;8347937;28;20120;-76
2022/12/28 05:16:44;;;;;;;1999.90;999.90;;;;;;;6.04;100.00;99671.81;8335712;28;20059;-76
2022/12/28 05:20:45;;;;;;;1999.90;999.90;;;;;;;6.06;100.00;99674.41;8336246;28;20786;-77
2022/12/28 05:24:47;;;;;;;1999.90;999.90;;;;;;;6.06;100.00;99670.13;8347809;28;20373;-77
2022/12/28 05:28:48;;;;;;;1999.90;999.90;;;;;;;6.05;100.00;99670.97;8325833;28;20144;-77
2022/12/28 05:32:50;;;;;;;1999.90;999.90;;;;;;;6.08;100.00;99667.56;8344159;28;20120;-77
2022/12/28 05:36:51;;;;;;;1999.90;999.90;;;;;;;6.10;100.00;99667.59;8381916;28;20139;-77
2022/12/28 05:40:53;;;;;;;1999.90;999.90;;;;;;;6.10;100.00;99667.59;8366648;28;20054;-76
2022/12/28 05:44:54;;;;;;;1999.90;999.90;;;;;;;6.12;100.00;99673.69;8378034;28;20488;-77
2022/12/28 05:48:56;;;;;;;1999.90;999.90;;;;;;;6.13;100.00;99671.13;8370033;28;20079;-77
2022/12/28 05:52:58;;;;;;;1999.90;999.90;;;;;;;6.14;100.00;99666.84;8373928;28;20040;-77
2022/12/28 05:56:59;;;;;;;1999.90;999.90;;;;;;;6.13;100.00;99659.94;8388177;28;20052;-77
2022/12/28 06:01:05;;;;;;;1999.90;999.90;;;;;;;6.13;100.00;99655.66;8373740;28;20087;-76
2022/12/28 06:05:07;;;;;;;1999.90;999.90;;;;;;;6.14;100.00;99654.81;8398103;28;20048;-76
2022/12/28 06:09:08;;;;;;;1999.90;999.90;;;;;;;6.14;100.00;99656.53;8383324;28;20062;-77
2022/12/28 06:13:09;;;;;;;1999.90;999.90;;;;;;;6.14;100.00;99652.25;8379921;28;20131;-77
2022/12/28 06:17:11;;;;;;;1999.90;999.90;;;;;;;6.16;100.00;99641.94;8363364;28;20839;-77
2022/12/28 06:21:18;;;;;;;1999.90;999.90;;;;;;;6.15;100.00;99635.94;8370123;28;20127;-77
2022/12/28 06:25:19;;;;;;;1999.90;999.90;;;;;;;6.15;100.00;99637.63;8367899;28;20045;-77
2022/12/28 06:29:21;;;;;;;1999.90;999.90;;;;;;;6.14;99.87;99638.47;8366392;28;20131;-77
2022/12/28 06:33:22;;;;;;;1999.90;999.90;;;;;;;6.14;99.81;99639.34;8362381;28;20725;-77
2022/12/28 06:37:24;;;;;;;1999.90;999.90;;;;;;;6.14;100.00;99630.75;8373014;28;20043;-78
2022/12/28 06:41:26;;;;;;;1999.90;999.90;;;;;;;6.16;99.78;99626.47;8396402;28;20447;-77
2022/12/28 06:45:28;;;;;;;1999.90;999.90;;;;;;;6.12;99.70;99624.69;8354995;28;20457;-77
2022/12/28 06:49:29;;;;;;;1999.90;999.90;;;;;;;6.12;99.58;99632.44;8372933;28;20453;-77
2022/12/28 06:53:34;;;;;;;1999.90;999.90;;;;;;;6.10;99.99;99632.38;8393045;28;20500;-77
2022/12/28 06:57:35;;;;;;;1999.90;999.90;;;;;;;6.12;99.83;99628.16;8390094;28;20045;-77
2022/12/28 07:01:39;;;;;;;1999.90;999.90;;;;;;;6.13;99.78;99636.75;8352147;28;20453;-78
2022/12/28 07:05:41;;;;;;;1999.90;999.90;;;;;;;6.11;99.72;99635.84;8374170;28;20036;-77
2022/12/28 07:09:42;;;;;;;1999.90;999.90;;;;;;;6.11;99.71;99630.69;8346290;28;20115;-78
2022/12/28 07:13:44;;;;;;;1999.90;999.90;;;;;;;6.14;99.67;99633.31;8349119;28;20051;-78
2022/12/28 07:17:45;;;;;;;1999.90;999.90;;;;;;;6.11;99.22;99634.16;8361109;28;20057;-77
2022/12/28 07:21:48;;;;;;;1999.90;999.90;;;;;;;6.07;99.29;99625.47;8400030;28;20079;-77
2022/12/28 07:25:50;;;;;;;1999.90;999.90;;;;;;;6.09;99.39;99627.19;8385912;28;20135;-77
2022/12/28 07:29:51;;;;;;;1999.90;999.90;;;;;;;6.07;99.01;99624.59;8352660;28;20041;-77
2022/12/28 07:33:54;;;;;;;1999.90;999.90;;;;;;;6.01;99.07;99627.94;8396270;28;20076;-77
2022/12/28 07:37:56;;;;;;;1999.90;999.90;;;;;;;5.99;99.07;99623.63;8375360;28;20047;-77
2022/12/28 07:41:57;;;;;;;1999.90;999.90;;;;;;;5.95;98.59;99632.13;8374480;28;20036;-78
2022/12/28 07:46:09;;;;;;;1999.90;999.90;;;;;;;5.91;98.67;99630.31;8374926;28;20435;-78
2022/12/28 07:50:11;;;;;;;1999.90;999.90;;;;;;;5.88;98.65;99622.50;8386707;28;20075;-78
2022/12/28 07:54:12;;;;;;;1999.90;999.90;;;;;;;5.82;98.68;99620.69;8399844;28;20057;-78
2022/12/28 07:58:13;;;;;;;1999.90;999.90;;;;;;;5.81;98.68;99616.38;8378681;28;20440;-78
2022/12/28 08:02:15;;;;;;;1999.90;999.90;;;;;;;5.81;98.92;99615.53;8378929;28;20781;-78
2022/12/28 08:06:21;;;;;;;1999.90;999.90;;;;;;;5.79;98.90;99615.50;8367310;28;20135;-77
2022/12/28 08:10:23;;;;;;;1999.90;999.90;;;;;;;5.76;99.14;99613.72;8370860;28;20051;-77
2022/12/28 08:14:24;;;;;;;1999.90;999.90;;;;;;;5.76;99.29;99606.00;8405462;28;20118;-77
2022/12/28 08:18:26;;;;;;;1999.90;999.90;;;;;;;5.79;99.10;99609.47;8358471;28;20096;-77
2022/12/28 08:22:27;;;;;;;1999.90;999.90;;;;;;;5.82;99.32;99609.53;8400490;28;20036;-77
2022/12/28 08:26:31;;;;;;;1999.90;999.90;;;;;;;5.85;99.75;99607.00;8350631;28;20123;-77
2022/12/28 08:30:33;;;;;;;1999.90;999.90;;;;;;;5.89;99.38;99604.50;8345389;28;20047;-78
2022/12/28 08:34:35;;;;;;;1999.90;999.90;;;;;;;5.93;99.31;99598.63;8393082;28;20058;-78
2022/12/28 08:38:37;;;;;;;1999.90;999.90;;;;;;;5.96;98.96;99592.63;8381717;28;20075;-77
2022/12/28 08:42:39;;;;;;;;;;;;;;;6.01;98.86;99594.44;8397680;28;20035;-77
2022/12/28 08:46:40;;;;;;;1999.90;999.90;;;;;;;6.06;98.75;99584.19;8344580;28;20406;-77
2022/12/28 08:50:42;;;;;;;1999.90;999.90;;;;;;;6.16;98.55;99591.25;8389899;28;20055;-77
2022/12/28 08:54:43;;;;;;;1999.90;999.90;;;;;;;6.27;98.40;99583.69;8377189;28;20059;-77
2022/12/28 08:58:46;;;;;;;1999.90;999.90;;;;;;;6.39;98.05;99585.59;8376131;28;20048;-77
2022/12/28 09:02:47;;;;;;;1999.90;999.90;;;;;;;6.50;97.15;99582.34;8373641;28;20062;-78
2022/12/28 09:06:49;;;;;;;1999.90;999.90;;;;;;;6.63;96.85;99580.78;8375973;28;20121;-77
2022/12/28 09:10:50;;;;;;;1999.90;999.90;;;;;;;6.77;96.41;99580.97;8381297;28;20040;-78
2022/12/28 09:14:52;;;;;;;1999.90;999.90;;;;;;;6.82;94.89;99582.81;8379057;28;20044;-78
2022/12/28 09:18:56;;;;;;;1999.90;999.90;;;;;;;6.94;94.37;99582.06;8381848;28;20148;-77
2022/12/28 09:22:58;;;;;;;1999.90;999.90;;;;;;;7.03;92.95;99581.34;8375293;28;20582;-78
2022/12/28 09:26:59;;;;;;;1999.90;999.90;;;;;;;7.16;92.74;99575.47;8369537;28;20816;-78
2022/12/28 09:31:03;;;;;;;1999.90;999.90;;;;;;;7.22;92.14;99583.31;8385319;28;20039;-78
2022/12/28 09:35:05;;;;;;;1999.90;999.90;;;;;;;7.21;91.65;99577.28;8371518;28;20072;-78
2022/12/28 09:39:13;;;;;;;1999.90;999.90;;;;;;;7.30;91.88;99581.66;8375425;28;20043;-77
2022/12/28 09:43:15;;;;;;;1999.90;999.90;;;;;;;7.38;91.33;99582.66;8362515;28;20110;-78
2022/12/28 09:47:39;;;;;;;1999.90;999.90;;;;;;;7.44;90.92;99574.94;8393462;28;20135;-77
2022/12/28 09:51:51;;;;;;;1999.90;999.90;;;;;;;7.44;90.34;99569.78;8372980;28;20051;-78
2022/12/28 09:56:05;;;;;;;1999.90;999.90;;;;;;;7.55;90.48;99569.91;8375041;28;20844;-78
2022/12/28 10:00:15;;;;;;;1999.90;999.90;;;;;;;7.67;90.39;99563.97;8358340;28;20079;-79
2022/12/28 10:04:17;;;;;;;1999.90;999.90;;;;;;;7.75;89.89;99560.63;8366878;28;20048;-79
2022/12/28 10:08:21;;;;;;;1999.90;999.90;;;;;;;7.75;89.87;99539.09;8360805;28;20078;-79
2022/12/28 10:12:25;;;;;;;1999.90;999.90;;;;;;;7.72;88.92;99539.94;8375176;28;20627;-79
2022/12/28 10:16:31;;;;;;;1999.90;999.90;;;;;;;7.71;89.60;99533.00;8382372;28;20161;-79
2022/12/28 10:20:33;;;;;;;1999.90;999.90;;;;;;;7.75;90.10;99536.50;8370491;28;20036;-79
2022/12/28 10:24:35;;;;;;;1999.90;999.90;;;;;;;7.80;90.89;99524.47;8391854;28;20651;-79
2022/12/28 10:28:46;;;;;;;1999.90;999.90;;;;;;;7.85;89.88;99509.88;8375565;28;20053;-79
2022/12/28 10:32:54;;;;;;;;;;;;;;;7.93;89.95;99517.72;8365253;28;20049;-80
2022/12/28 10:37:17;;;;;;;1999.90;999.90;;;;;;;7.98;90.01;99505.69;8387494;28;19931;-79
2022/12/28 10:41:21;;;;;;;1999.90;999.90;;;;;;;8.09;89.53;99489.41;8372577;28;20123;-79
2022/12/28 10:45:24;;;;;;;1999.90;999.90;;;;;;;8.19;88.32;99487.72;8395344;28;20448;-79
2022/12/28 10:49:30;;;;;;;1999.90;999.90;;;;;;;8.21;87.63;99475.66;8361240;28;20044;-79
2022/12/28 10:53:43;;;;;;;1999.90;999.90;;;;;;;8.30;87.72;99474.88;8383602;28;20064;-78
2022/12/28 10:57:45;;;;;;;1999.90;999.90;;;;;;;8.29;87.20;99466.25;8387479;28;20044;-78
2022/12/28 11:02:25;;;;;;;1999.90;999.90;;;;;;;8.27;87.02;99457.63;8364071;28;20060;-79
2022/12/28 11:06:32;;;;;;;1999.90;999.90;;;;;;;8.30;86.93;99452.44;8370309;28;20049;-79
2022/12/28 11:10:33;;;;;;;1999.90;999.90;;;;;;;8.45;87.52;99449.97;8385646;28;20064;-79
2022/12/28 11:14:36;;;;;;;1999.90;999.90;;;;;;;8.60;86.84;99436.22;8357815;28;20072;-78
2022/12/28 11:18:39;;;;;;;1999.90;999.90;;;;;;;8.68;85.92;99434.56;8388871;28;20084;-78
2022/12/28 11:22:40;;;;;;;1999.90;999.90;;;;;;;8.74;85.18;99425.94;8393110;28;20075;-79
2022/12/28 11:26:46;;;;;;;1999.90;999.90;;;;;;;8.86;85.56;99415.63;8363836;28;20044;-78
2022/12/28 11:30:50;;;;;;;1999.90;999.90;;;;;;;8.97;83.79;99413.03;8363059;28;20057;-78
2022/12/28 11:34:54;;;;;;;1999.90;999.90;;;;;;;8.97;84.07;99405.28;8369678;28;20486;-78
2022/12/28 11:38:57;;;;;;;1999.90;999.90;;;;;;;9.02;84.41;99394.09;8381291;28;20059;-79
2022/12/28 11:42:58;;;;;;;;;;;;;;;9.05;84.06;99391.50;8363188;28;20139;-79
2022/12/28 11:47:14;;;;;;;1999.90;999.90;;;;;;;9.06;83.43;99388.03;8348705;28;19959;-79
2022/12/28 11:51:18;;;;;;;1999.90;999.90;;;;;;;9.07;83.07;99389.78;8368769;28;20881;-79
2022/12/28 11:55:39;;;;;;;1999.90;999.90;;;;;;;9.05;82.46;99375.09;8378759;28;20108;-79
2022/12/28 11:59:40;;;;;;;1999.90;999.90;;;;;;;9.11;83.23;99367.31;8370123;28;20132;-79
2022/12/28 12:03:57;;;;;;;1999.90;999.90;;;;;;;9.08;82.64;99368.19;8385097;28;20160;-79
2022/12/28 12:07:58;;;;;;;1999.90;999.90;;;;;;;9.06;82.03;99359.56;8381007;28;20044;-80
2022/12/28 12:12:15;;;;;;;1999.90;999.90;;;;;;;9.07;81.89;99361.28;8363850;28;20127;-79
2022/12/28 12:16:21;;;;;;;1999.90;999.90;;;;;;;9.19;82.18;99344.91;8362741;28;20057;-80
2022/12/28 12:20:47;;;;;;;1999.90;999.90;;;;;;;9.19;81.51;99338.84;8398113;28;20064;-81
2022/12/28 12:24:55;;;;;;;1999.90;999.90;;;;;;;9.05;80.39;99331.94;8369932;28;20354;-80
2022/12/28 12:29:15;;;;;;;1999.90;999.90;;;;;;;9.02;81.00;99333.66;8405060;28;20040;-79
2022/12/28 12:33:26;;;;;;;1999.90;999.90;;;;;;;9.00;81.58;99335.38;8364482;28;20055;-79
2022/12/28 12:37:59;;;;;;;1999.90;999.90;;;;;;;9.00;81.17;99323.31;8378505;28;20123;-80
2022/12/28 12:42:15;;;;;;;1999.90;999.90;;;;;;;9.03;81.29;99318.13;8392839;28;20040;-79
2022/12/28 12:46:54;;;;;;;1999.90;999.90;;;;;;;9.02;80.47;99303.44;8377237;28;20064;-79
2022/12/28 12:51:24;;;;;;;1999.90;999.90;;;;;;;9.05;81.10;99306.03;8386486;28;20105;-79
2022/12/28 12:55:47;;;;;;;1999.90;999.90;;;;;;;9.12;80.91;99295.66;8381536;28;20043;-80
2022/12/28 13:00:00;;;;;;;1999.90;999.90;;;;;;;9.13;80.31;99287.88;8404690;28;20052;-79
2022/12/28 13:04:13;;;;;;;1999.90;999.90;;;;;;;9.12;79.73;99275.81;8404875;28;20646;-78
2022/12/28 13:08:30;;;;;;;1999.90;999.90;;;;;;;9.05;79.84;99280.13;8380311;28;20108;-78
2022/12/28 13:12:31;;;;;;;1999.90;999.90;;;;;;;9.00;80.29;99266.31;8400853;28;20045;-79
2022/12/28 13:16:33;;;;;;;1999.90;999.90;;;;;;;8.90;80.06;99255.97;8376853;28;20063;-78
2022/12/28 13:20:34;;;;;;;1999.90;999.90;;;;;;;8.90;80.41;99248.19;8396387;28;20122;-78
2022/12/28 13:24:39;;;;;;;1999.90;999.90;;;;;;;8.90;79.74;99246.47;8397961;28;20127;-79
2022/12/28 13:28:50;;;;;;;1999.90;999.90;;;;;;;8.86;79.11;99230.94;8371687;28;20047;-78
2022/12/28 13:32:56;;;;;;;1999.90;999.90;;;;;;;8.83;79.67;99208.50;8353489;28;20145;-79
2022/12/28 13:37:00;;;;;;;1999.90;999.90;;;;;;;8.76;79.09;99214.53;8354225;28;20529;-79
2022/12/28 13:41:02;;;;;;;1999.90;999.90;;;;;;;8.66;79.53;99195.56;8377211;28;20044;-80
2022/12/28 13:45:10;;;;;;;1999.90;999.90;;;;;;;8.60;78.88;99190.38;8372579;28;20041;-80
2022/12/28 13:49:12;;;;;;;1999.90;999.90;;;;;;;8.59;79.28;99193.81;8395749;28;20076;-79
2022/12/28 13:53:19;;;;;;;1999.90;999.90;;;;;;;8.57;79.51;99199.84;8371114;28;20684;-78
2022/12/28 13:57:23;;;;;;;1999.90;999.90;;;;;;;8.53;79.34;99187.78;8377980;28;20083;-78
2022/12/28 14:01:49;;;;;;;1999.90;999.90;;;;;;;8.53;79.37;99182.63;8353925;28;20056;-77
2022/12/28 14:05:54;;;;;;;1999.90;999.90;;;;;;;8.54;80.05;99184.34;8339766;28;20113;-78
2022/12/28 14:09:56;;;;;;;1999.90;999.90;;;;;;;8.52;79.60;99179.16;8369964;28;20054;-78
2022/12/28 14:13:58;;;;;;;1999.90;999.90;;;;;;;8.50;80.00;99173.13;8387130;28;20043;-78
2022/12/28 14:18:00;;;;;;;1999.90;999.90;;;;;;;8.50;79.18;99180.03;8353797;28;20054;-78
2022/12/28 14:22:02;;;;;;;1999.90;999.90;;;;;;;8.50;80.10;99175.72;8357058;28;20254;-78
2022/12/28 14:26:07;;;;;;;1999.90;999.90;;;;;;;8.48;79.34;99169.69;8359593;28;20093;-78
2022/12/28 14:30:24;;;;;;;1999.90;999.90;;;;;;;8.50;79.06;99180.03;8368445;28;20052;-78
2022/12/28 14:34:28;;;;;;;1999.90;999.90;;;;;;;8.38;79.57;99160.19;8367971;28;20139;-78
2022/12/28 14:38:33;;;;;;;1999.90;999.90;;;;;;;8.31;79.25;99159.28;8370536;28;20073;-78
2022/12/28 14:42:35;;;;;;;1999.90;999.90;;;;;;;8.33;79.74;99154.13;8386916;28;20048;-78
2022/12/28 14:46:38;;;;;;;1999.90;999.90;;;;;;;8.29;79.21;99154.97;8390702;28;20048;-78
2022/12/28 14:50:54;;;;;;;1999.90;999.90;;;;;;;8.24;78.90;99136.84;8389360;28;20118;-78
2022/12/28 14:54:55;;;;;;;1999.90;999.90;;;;;;;8.26;79.17;99142.91;8385433;28;20052;-78
2022/12/28 14:58:59;;;;;;;1999.90;999.90;;;;;;;8.22;79.80;99125.63;8359524;28;20079;-77
2022/12/28 15:03:21;;;;;;;1999.90;999.90;;;;;;;8.21;79.48;99133.41;8382282;28;20048;-79
2022/12/28 15:07:22;;;;;;;1999.90;999.90;;;;;;;8.16;79.96;99120.47;8396323;28;20094;-79
2022/12/28 15:11:26;;;;;;;1999.90;999.90;;;;;;;8.10;80.10;99116.16;8381761;28;20037;-79
2022/12/28 15:15:27;;;;;;;1999.90;999.90;;;;;;;8.08;80.18;99112.72;8367469;28;20043;-79
2022/12/28 15:19:28;;;;;;;1999.90;999.90;;;;;;;8.05;79.78;99106.66;8375324;28;20094;-79
2022/12/28 15:23:30;;;;;;;1999.90;999.90;;;;;;;8.03;80.57;99109.25;8384335;28;20043;-79
2022/12/28 15:27:31;;;;;;;1999.90;999.90;;;;;;;7.96;80.29;99104.06;8387994;28;20288;-79
2022/12/28 15:31:33;;;;;;;1999.90;999.90;;;;;;;7.93;80.91;99107.53;8362342;28;20055;-79
2022/12/28 15:35:34;;;;;;;1999.90;999.90;;;;;;;7.90;81.52;99097.19;8382037;28;20717;-79
2022/12/28 15:39:36;;;;;;;1999.90;999.90;;;;;;;7.86;81.80;99100.59;8381687;28;20055;-79
2022/12/28 15:43:37;;;;;;;1999.90;999.90;;;;;;;7.86;81.55;99095.44;8391400;28;20631;-78
2022/12/28 15:47:39;;;;;;;1999.90;999.90;;;;;;;7.84;81.79;99086.81;8364971;28;20120;-78
2022/12/28 15:51:41;;;;;;;1999.90;999.90;;;;;;;7.81;81.63;99089.41;8364134;28;20044;-79
2022/12/28 15:55:43;;;;;;;1999.90;999.90;;;;;;;7.76;81.76;99083.38;8378574;28;20072;-78
2022/12/28 15:59:44;;;;;;;1999.90;999.90;;;;;;;7.71;81.50;99083.34;8368384;28;20151;-77
2022/12/28 16:03:50;;;;;;;1999.90;999.90;;;;;;;7.71;81.80;99080.75;8364721;28;20140;-76
2022/12/28 16:07:52;;;;;;;1999.90;999.90;;;;;;;7.71;82.01;99083.34;8400093;28;20415;-76
2022/12/28 16:11:53;;;;;;;1999.90;999.90;;;;;;;7.72;82.63;99071.28;8365003;28;20583;-76
2022/12/28 16:15:55;;;;;;;1999.90;999.90;;;;;;;7.70;82.14;99062.66;8377603;28;20064;-76
2022/12/28 16:19:57;;;;;;;1999.90;999.90;;;;;;;7.67;82.63;99063.53;8402268;28;20040;-78
2022/12/28 16:23:59;;;;;;;1999.90;999.90;;;;;;;7.72;82.07;99051.50;8398429;28;20047;-78
2022/12/28 16:28:00;;;;;;;1999.90;999.90;;;;;;;7.71;81.42;99047.16;8380343;28;20435;-78
2022/12/28 16:32:02;;;;;;;1999.90;999.90;;;;;;;7.66;82.55;99042.84;8379710;28;20139;-78
2022/12/28 16:36:10;;;;;;;1999.90;999.90;;;;;;;7.64;82.42;99045.44;8392641;28;20067;-78
2022/12/28 16:40:11;;;;;;;1999.90;999.90;;;;;;;7.57;82.69;99051.47;8369018;28;20048;-77
2022/12/28 16:44:16;;;;;;;1999.90;999.90;;;;;;;7.53;83.24;99034.22;8377455;28;20434;-78
2022/12/28 16:48:17;;;;;;;1999.90;999.90;;;;;;;7.50;83.20;99041.97;8363679;28;20096;-78
2022/12/28 16:52:19;;;;;;;1999.90;999.90;;;;;;;7.50;83.34;99037.66;8384835;28;20127;-78
2022/12/28 16:56:20;;;;;;;1999.90;999.90;;;;;;;7.51;83.69;99017.84;8354441;28;20624;-78
2022/12/28 17:00:23;;;;;;;1999.90;999.90;;;;;;;7.46;83.67;99010.09;8340623;28;21620;-78
2022/12/28 17:04:24;;;;;;;;;;;;;;;7.51;83.75;98992.00;8350775;28;20132;-77
2022/12/28 17:08:26;;;;;;;1999.90;999.90;;;;;;;7.56;83.30;98998.06;8371798;28;19954;-78
2022/12/28 17:12:27;;;;;;;1999.90;999.90;;;;;;;7.61;83.45;98995.50;8381681;28;20048;-78
2022/12/28 17:16:29;;;;;;;1999.90;999.90;;;;;;;7.66;82.65;98989.44;8373807;28;20112;-78
2022/12/28 17:20:31;;;;;;;1999.90;999.90;;;;;;;7.73;82.51;98995.50;8362464;28;20048;-77
2022/12/28 17:24:33;;;;;;;1999.90;999.90;;;;;;;7.70;82.91;98990.31;8372043;28;20136;-77
2022/12/28 17:28:35;;;;;;;1999.90;999.90;;;;;;;7.74;82.91;98982.59;8376904;28;20054;-78
2022/12/28 17:32:37;;;;;;;1999.90;999.90;;;;;;;7.78;82.88;98967.94;8365304;28;20135;-78
2022/12/28 17:36:38;;;;;;;1999.90;999.90;;;;;;;7.84;83.01;98967.91;8373302;28;20304;-78
2022/12/28 17:40:41;;;;;;;1999.90;999.90;;;;;;;7.84;82.63;98966.19;8383332;28;20629;-78
2022/12/28 17:44:44;;;;;;;;;;;;;;;7.81;83.13;98949.84;8372897;28;20136;-78
2022/12/28 17:48:46;;;;;;;1999.90;999.90;;;;;;;7.81;82.88;98948.13;8382915;28;19924;-78
2022/12/28 17:52:47;;;;;;;1999.90;999.90;;;;;;;7.82;82.98;98941.22;8381225;28;20131;-78
2022/12/28 17:56:49;;;;;;;1999.90;999.90;;;;;;;7.84;83.63;98939.50;8358368;28;20144;-78
2022/12/28 18:00:56;;;;;;;1999.90;999.90;;;;;;;7.83;83.73;98930.88;8346931;28;20135;-78
2022/12/28 18:04:57;;;;;;;1999.90;999.90;;;;;;;7.89;83.02;98928.28;8373839;28;20036;-80
2022/12/28 18:08:59;;;;;;;1999.90;999.90;;;;;;;8.01;83.05;98921.38;8356497;28;20541;-79
2022/12/28 18:13:01;;;;;;;1999.90;999.90;;;;;;;8.04;82.92;98913.63;8388634;28;20112;-78
2022/12/28 18:17:07;;;;;;;1999.90;999.90;;;;;;;8.07;82.54;98904.13;8384569;28;20059;-81
2022/12/28 18:21:17;;;;;;;1999.90;999.90;;;;;;;8.18;82.35;98896.34;8391894;28;20073;-78
2022/12/28 18:25:22;;;;;;;1999.90;999.90;;;;;;;8.22;82.32;98903.22;8411609;28;20435;-78
2022/12/28 18:29:23;;;;;;;1999.90;999.90;;;;;;;8.27;82.21;98900.66;8406834;28;20393;-79
2022/12/28 18:33:25;;;;;;;1999.90;999.90;;;;;;;8.35;82.31;98888.56;8407090;28;20553;-78
2022/12/28 18:37:27;;;;;;;1999.90;999.90;;;;;;;8.33;81.85;98878.19;8363502;28;20049;-78
2022/12/28 18:41:28;;;;;;;1999.90;999.90;;;;;;;8.37;82.10;98882.50;8380602;28;20612;-78